createdAt,value
2023-05-09T00:05:05.795Z,72.11
2023-05-09T00:15:12.341Z,71.77
2023-05-09T00:25:18.521Z,71.21
2023-05-09T00:35:24.027Z,71.01
2023-05-09T00:45:29.578Z,70.65
2023-05-09T00:55:34.618Z,70.72
2023-05-09T01:05:40.402Z,70.83
2023-05-09T01:15:46.453Z,70.83
2023-05-09T01:25:52.502Z,71.05
2023-05-09T01:35:58.488Z,70.98
2023-05-09T01:46:04.202Z,70.34
2023-05-09T01:56:09.965Z,69.64
2023-05-09T02:06:15.474Z,69.24
2023-05-09T02:16:21.079Z,68.42
2023-05-09T02:26:26.827Z,68.23
2023-05-09T02:36:32.773Z,67.96
2023-05-09T02:46:38.748Z,67.48
2023-05-09T02:56:44.319Z,67.46
2023-05-09T03:06:50.703Z,67.38
2023-05-09T03:16:56.038Z,66.75
2023-05-09T03:27:02.846Z,66.68
2023-05-09T03:37:08.648Z,66.92
2023-05-09T03:47:14.377Z,66.74
2023-05-09T03:57:19.673Z,65.86
2023-05-09T04:07:25.365Z,65.45
2023-05-09T04:17:30.734Z,66.59
2023-05-09T04:27:36.859Z,66.76
2023-05-09T04:37:42.723Z,66.61
2023-05-09T04:47:45.951Z,70.48
2023-05-09T04:57:48.419Z,77.65
2023-05-09T05:07:53.362Z,82.92
2023-05-09T05:17:58.801Z,80.28
2023-05-09T05:28:04.581Z,76.54
2023-05-09T05:38:09.983Z,77.60
2023-05-09T05:48:16.201Z,75.29
2023-05-09T05:58:21.782Z,75.14
2023-05-09T06:08:30.055Z,72.22
2023-05-09T06:18:37.903Z,68.67
2023-05-09T06:28:44.335Z,67.60
2023-05-09T06:38:50.314Z,67.36
2023-05-09T06:48:56.468Z,65.29
2023-05-09T06:59:02.082Z,60.99
2023-05-09T07:09:08.245Z,60.48
2023-05-09T07:19:14.004Z,59.79
2023-05-09T07:29:19.571Z,59.21
2023-05-09T07:40:44.924Z,57.59
2023-05-09T07:50:50.060Z,58.86
2023-05-09T08:00:55.896Z,58.72
2023-05-09T08:11:02.174Z,58.45
2023-05-09T08:21:10.581Z,59.36
2023-05-09T08:31:18.323Z,58.87
2023-05-09T08:41:25.045Z,56.76
2023-05-09T08:51:30.878Z,58.65
2023-05-09T09:01:36.698Z,58.46
2023-05-09T09:11:43.931Z,59.74
2023-05-09T09:21:51.443Z,58.62
2023-05-09T09:31:57.373Z,58.83
2023-05-09T09:42:03.656Z,59.74
2023-05-09T09:52:09.242Z,59.72
2023-05-09T10:02:15.016Z,59.17
2023-05-09T10:12:20.502Z,60.44
2023-05-09T10:22:25.668Z,61.39
2023-05-09T10:32:31.584Z,61.90
2023-05-09T10:42:37.518Z,62.31
2023-05-09T10:52:43.447Z,62.66
2023-05-09T11:02:49.511Z,62.93
2023-05-09T11:12:57.555Z,63.18
2023-05-09T11:23:03.489Z,63.40
2023-05-09T11:33:09.661Z,63.57
2023-05-09T11:43:15.462Z,63.80
2023-05-09T11:53:21.533Z,63.98
2023-05-09T12:03:27.319Z,64.15
2023-05-09T12:13:35.044Z,64.26
2023-05-09T12:23:40.871Z,64.44
2023-05-09T12:33:46.510Z,64.56
2023-05-09T12:43:52.353Z,64.69
2023-05-09T12:53:57.903Z,64.78
2023-05-09T13:04:03.999Z,64.84
2023-05-09T13:14:09.819Z,64.95
2023-05-09T13:24:15.357Z,65.13
2023-05-09T13:34:21.074Z,65.19
2023-05-09T13:44:26.949Z,65.29
2023-05-09T13:54:32.841Z,65.31
2023-05-09T14:04:38.793Z,65.44
2023-05-09T14:14:44.226Z,65.58
2023-05-09T14:24:51.243Z,65.59
2023-05-09T14:34:57.305Z,65.66
2023-05-09T14:45:03.219Z,65.71
2023-05-09T14:55:08.967Z,65.74
2023-05-09T15:05:14.811Z,65.79
2023-05-09T15:15:21.511Z,65.79
2023-05-09T15:25:27.363Z,65.82
2023-05-09T15:35:32.839Z,65.77
2023-05-09T15:45:38.818Z,65.78
2023-05-09T15:55:44.381Z,65.78
2023-05-09T16:05:50.039Z,65.76
2023-05-09T16:15:56.139Z,65.77
2023-05-09T16:26:01.911Z,65.82
2023-05-09T16:36:07.583Z,65.92
2023-05-09T16:46:13.263Z,66.03
2023-05-09T16:56:19.515Z,66.01
2023-05-09T17:06:25.484Z,66.04
2023-05-09T17:16:31.009Z,66.10
2023-05-09T17:26:36.768Z,66.26
2023-05-09T17:36:42.546Z,66.40
2023-05-09T17:46:48.278Z,66.55
2023-05-09T17:56:54.348Z,66.68
2023-05-09T18:07:00.353Z,66.71
2023-05-09T18:17:05.894Z,66.81
2023-05-09T18:27:12.033Z,66.85
2023-05-09T18:37:17.410Z,66.89
2023-05-09T18:47:22.947Z,66.92
2023-05-09T18:57:28.956Z,66.96
2023-05-09T19:07:34.525Z,66.98
2023-05-09T19:17:40.625Z,67.02
2023-05-09T19:27:48.136Z,67.08
2023-05-09T19:37:54.200Z,64.96
2023-05-09T19:47:59.451Z,60.39
2023-05-09T19:58:05.198Z,60.68
2023-05-09T20:08:10.583Z,62.48
2023-05-09T20:18:17.828Z,62.10
2023-05-09T20:28:23.718Z,60.27
2023-05-09T20:38:29.366Z,61.88
2023-05-09T20:48:35.466Z,62.07
2023-05-09T20:58:41.110Z,61.82
2023-05-09T21:08:47.223Z,61.66
2023-05-09T21:18:53.071Z,60.21
2023-05-09T21:28:58.392Z,60.12
2023-05-09T21:39:03.633Z,60.53
2023-05-09T21:49:09.263Z,61.89
2023-05-09T21:59:14.983Z,63.34
2023-05-09T22:09:20.550Z,64.36
2023-05-09T22:19:26.437Z,64.77
2023-05-09T22:29:32.267Z,65.14
2023-05-09T22:39:37.777Z,65.46
2023-05-09T22:49:44.577Z,65.71
2023-05-09T22:59:51.806Z,66.11
2023-05-09T23:09:57.419Z,66.70
2023-05-09T23:20:03.056Z,67.12
2023-05-09T23:30:08.641Z,67.29
2023-05-09T23:40:14.337Z,67.61
2023-05-09T23:50:20.171Z,68.07
